Time;durP1;ratioP1;P1;durP2;ratioP2;P2;SDS_P1;SDS_P2;PMS_P1;PMS_P2;Temp;Humidity;BMP_temperature;BMP_pressure;BME280_temperature;BME280_humidity;BME280_pressure;Samples;Min_cycle;Max_cycle;Signal;HPM_P1;HPM_P2
2021/07/21 00:00:42;;;;;;;1999.90;999.90;;;;;;;16.02;42.89;101639.34;4827004;29;99421;-72
2021/07/21 00:03:10;;;;;;;1999.90;999.90;;;;;;;16.06;42.86;101633.16;4825642;29;97041;-71
2021/07/21 00:05:39;;;;;;;1999.90;999.90;;;;;;;16.09;42.69;101638.53;4827447;29;96870;-72
2021/07/21 00:08:07;;;;;;;1999.90;999.90;;;;;;;16.12;42.57;101634.09;4827707;29;98260;-72
2021/07/21 00:10:35;;;;;;;1999.90;999.90;;;;;;;16.16;42.47;101639.50;4827972;29;99481;-72
2021/07/21 00:15:59;;;;;;;1999.90;999.90;;;;;;;16.18;42.63;101629.69;4826476;29;96878;-72
2021/07/21 00:18:31;;;;;;;1999.90;999.90;;;;;;;16.23;42.76;101632.44;4840181;28;98509;-72
2021/07/21 00:20:59;;;;;;;1999.90;999.90;;;;;;;16.25;42.46;101630.69;4824762;29;98086;-72
2021/07/21 00:23:28;;;;;;;1999.90;999.90;;;;;;;16.25;42.60;101630.69;4828895;29;97750;-72
2021/07/21 00:25:56;;;;;;;1999.90;999.90;;;;;;;16.22;42.57;101636.91;4828268;29;97261;-72
2021/07/21 00:28:24;;;;;;;1999.90;999.90;;;;;;;16.19;42.80;101635.97;4840496;28;96982;-72
2021/07/21 00:30:54;;;;;;;1999.90;999.90;;;;;;;16.18;42.69;101640.44;4825684;29;97977;-72
2021/07/21 00:33:23;;;;;;;1999.90;999.90;;;;;;;16.13;42.72;101635.88;4857740;28;99883;-72
2021/07/21 00:35:51;;;;;;;1999.90;999.90;;;;;;;16.09;42.85;101633.19;4826221;29;97321;-72
2021/07/21 00:38:20;;;;;;;1999.90;999.90;;;;;;;16.14;43.07;101637.72;4855193;28;97237;-72
2021/07/21 00:40:50;;;;;;;1999.90;999.90;;;;;;;16.15;43.04;101628.75;4842580;29;99392;-72
2021/07/21 00:43:18;;;;;;;1999.90;999.90;;;;;;;16.16;42.95;101630.56;4826240;29;100342;-72
2021/07/21 00:45:48;;;;;;;1999.90;999.90;;;;;;;16.09;42.68;101630.50;4826350;29;97022;-72
2021/07/21 00:48:18;;;;;;;1999.90;999.90;;;;;;;16.12;42.99;101628.72;4854135;28;98388;-72
2021/07/21 00:50:46;;;;;;;1999.90;999.90;;;;;;;16.14;42.96;101635.94;4824242;29;99362;-72
2021/07/21 00:53:14;;;;;;;1999.90;999.90;;;;;;;16.14;42.79;101618.91;4826582;29;99819;-72
2021/07/21 00:55:42;;;;;;;1999.90;999.90;;;;;;;16.12;42.93;101624.28;4808852;29;97002;-71
2021/07/21 00:58:11;;;;;;;1999.90;999.90;;;;;;;16.13;43.10;101623.38;4828878;29;97119;-72
2021/07/21 01:00:39;;;;;;;1999.90;999.90;;;;;;;16.16;43.18;101625.19;4826571;29;99619;-72
2021/07/21 01:03:07;;;;;;;1999.90;999.90;;;;;;;16.18;42.87;101628.81;4841407;29;99991;-72
2021/07/21 01:05:42;;;;;;;1999.90;999.90;;;;;;;16.19;43.01;101626.13;4824134;29;97884;-72
2021/07/21 01:08:12;;;;;;;1999.90;999.90;;;;;;;16.21;42.84;101621.69;4827665;29;98189;-72
2021/07/21 01:11:11;;;;;;;1999.90;999.90;;;;;;;16.23;43.18;101624.38;4820779;29;97773;-75
2021/07/21 01:13:42;;;;;;;1999.90;999.90;;;;;;;16.22;43.15;101626.16;4824004;29;99687;-73
2021/07/21 01:16:15;;;;;;;1999.90;999.90;;;;;;;16.27;43.16;101639.66;4810778;29;97090;-73
2021/07/21 01:18:48;;;;;;;1999.90;999.90;;;;;;;16.26;43.08;101640.53;4826055;29;97678;-71
2021/07/21 01:21:35;;;;;;;1999.90;999.90;;;;;;;16.22;43.03;101636.00;4857818;28;97570;-72
2021/07/21 01:24:13;;;;;;;1999.90;999.90;;;;;;;16.23;42.77;101637.81;4825510;29;100650;-71
2021/07/21 01:26:48;;;;;;;1999.90;999.90;;;;;;;16.23;42.81;101640.50;4838988;29;97970;-72
2021/07/21 01:29:21;;;;;;;1999.90;999.90;;;;;;;16.21;42.94;101634.19;4856922;28;97417;-73
2021/07/21 01:31:49;;;;;;;1999.90;999.90;;;;;;;16.21;42.85;101639.56;4825807;29;97665;-71
2021/07/21 01:34:18;;;;;;;1999.90;999.90;;;;;;;16.20;42.95;101648.50;4827063;29;97924;-70
2021/07/21 01:36:52;;;;;;;1999.90;999.90;;;;;;;16.19;42.81;101646.72;4808544;29;97926;-71
2021/07/21 01:39:23;;;;;;;1999.90;999.90;;;;;;;16.17;42.79;101645.78;4854937;28;97101;-73
2021/07/21 01:41:55;;;;;;;1999.90;999.90;;;;;;;16.16;42.87;101647.56;4842208;29;100297;-71
2021/07/21 01:44:27;;;;;;;1999.90;999.90;;;;;;;16.14;42.77;101643.06;4840054;29;99062;-72
2021/07/21 01:46:57;;;;;;;1999.90;999.90;;;;;;;16.12;43.10;101643.06;4856232;28;97458;-71
2021/07/21 01:49:29;;;;;;;1999.90;999.90;;;;;;;16.10;42.79;101645.69;4853567;28;97356;-72
2021/07/21 01:52:04;;;;;;;1999.90;999.90;;;;;;;16.09;42.79;101651.97;4839450;29;98099;-72
2021/07/21 01:54:33;;;;;;;1999.90;999.90;;;;;;;16.07;42.83;101643.00;4810847;29;100614;-71
2021/07/21 01:57:10;;;;;;;1999.90;999.90;;;;;;;16.00;43.08;101640.16;4841791;29;97862;-71
2021/07/21 01:59:47;;;;;;;1999.90;999.90;;;;;;;16.00;43.35;101640.16;4840550;29;97109;-71
2021/07/21 02:02:47;;;;;;;1999.90;999.90;;;;;;;15.99;43.42;101644.66;4823848;29;97338;-71
2021/07/21 02:05:21;;;;;;;1999.90;999.90;;;;;;;15.97;43.40;101645.50;4839513;28;100810;-74
2021/07/21 02:07:50;;;;;;;1999.90;999.90;;;;;;;15.97;43.34;101650.88;4838781;29;97726;-72
2021/07/21 02:10:21;;;;;;;1999.90;999.90;;;;;;;15.93;43.08;101639.22;4809466;29;97397;-72
2021/07/21 02:13:09;;;;;;;1999.90;999.90;;;;;;;15.91;43.46;101645.44;4855704;28;98308;-71
2021/07/21 02:15:44;;;;;;;1999.90;999.90;;;;;;;15.90;43.56;101644.50;4827960;28;100757;-71
2021/07/21 02:18:16;;;;;;;1999.90;999.90;;;;;;;15.89;43.40;101652.56;4856601;28;97379;-71
2021/07/21 02:20:45;;;;;;;1999.90;999.90;;;;;;;15.90;43.19;101646.31;4839349;29;97977;-73
2021/07/21 02:23:13;;;;;;;1999.90;999.90;;;;;;;15.91;43.56;101648.13;4824374;29;98216;-71
2021/07/21 02:25:44;;;;;;;1999.90;999.90;;;;;;;15.96;42.93;101649.97;4827248;29;97703;-71
2021/07/21 02:28:14;;;;;;;1999.90;999.90;;;;;;;15.90;43.43;101657.94;4825341;29;97033;-71
2021/07/21 02:30:47;;;;;;;1999.90;999.90;;;;;;;15.88;43.23;101654.38;4839484;29;97847;-71
2021/07/21 02:33:18;;;;;;;1999.90;999.90;;;;;;;15.88;43.34;101649.00;4857007;28;98938;-71
2021/07/21 02:35:46;;;;;;;1999.90;999.90;;;;;;;15.87;43.05;101659.69;4809319;29;100747;-72
2021/07/21 02:38:17;;;;;;;1999.90;999.90;;;;;;;15.84;43.02;101660.56;4841323;29;98076;-71
2021/07/21 02:40:51;;;;;;;1999.90;999.90;;;;;;;15.84;43.23;101665.94;4825636;29;97945;-72
2021/07/21 02:43:24;;;;;;;1999.90;999.90;;;;;;;15.81;43.25;101663.19;4837699;29;99771;-71
2021/07/21 02:45:54;;;;;;;1999.90;999.90;;;;;;;15.74;43.53;101663.13;4853878;28;97456;-72
2021/07/21 02:48:24;;;;;;;1999.90;999.90;;;;;;;15.73;43.28;101666.66;4816752;29;97664;-72
2021/07/21 02:50:56;;;;;;;1999.90;999.90;;;;;;;15.71;43.45;101666.63;4854672;28;98070;-71
2021/07/21 02:53:29;;;;;;;1999.90;999.90;;;;;;;15.66;43.42;101659.41;4854555;28;98514;-71
2021/07/21 02:56:20;;;;;;;1999.90;999.90;;;;;;;15.64;43.81;101661.16;4855670;28;98970;-71
2021/07/21 02:58:54;;;;;;;1999.90;999.90;;;;;;;15.65;43.42;101665.66;4854563;28;97285;-71
2021/07/21 03:01:25;;;;;;;1999.90;999.90;;;;;;;15.65;43.70;101663.84;4832146;28;96913;-71
2021/07/21 03:03:54;;;;;;;1999.90;999.90;;;;;;;15.65;43.82;101674.59;4832599;28;97791;-72
2021/07/21 03:06:25;;;;;;;1999.90;999.90;;;;;;;15.67;43.93;101666.56;4827898;29;99229;-72
2021/07/21 03:09:01;;;;;;;1999.90;999.90;;;;;;;15.68;43.73;101674.66;4829807;29;97387;-72
2021/07/21 03:11:46;;;;;;;1999.90;999.90;;;;;;;15.66;44.09;101665.69;4828094;29;96691;-72
2021/07/21 03:14:14;;;;;;;1999.90;999.90;;;;;;;15.63;44.08;101665.63;4829551;29;98803;-72
2021/07/21 03:16:46;;;;;;;1999.90;999.90;;;;;;;15.63;43.93;101672.78;4829049;29;97822;-72
2021/07/21 03:19:26;;;;;;;1999.90;999.90;;;;;;;15.62;44.09;101671.88;4810909;29;97606;-72
2021/07/21 03:22:01;;;;;;;1999.90;999.90;;;;;;;15.62;44.15;101673.66;4827122;29;97385;-71
2021/07/21 03:24:32;;;;;;;1999.90;999.90;;;;;;;15.63;43.87;101670.97;4842259;29;100861;-71
2021/07/21 03:27:14;;;;;;;1999.90;999.90;;;;;;;15.65;44.31;101674.59;4831969;28;96925;-72
2021/07/21 03:30:01;;;;;;;1999.90;999.90;;;;;;;15.66;43.93;101671.06;4828102;29;96807;-72
2021/07/21 03:32:43;;;;;;;1999.90;999.90;;;;;;;15.65;43.91;101666.53;4842459;29;99537;-72
2021/07/21 03:35:13;;;;;;;1999.90;999.90;;;;;;;15.64;44.34;101662.06;4811423;29;100160;-71
2021/07/21 03:37:42;;;;;;;1999.90;999.90;;;;;;;15.66;44.15;101667.44;4842600;29;100483;-71
2021/07/21 03:40:11;;;;;;;1999.90;999.90;;;;;;;15.66;44.44;101668.38;4827357;29;97396;-71
2021/07/21 03:42:40;;;;;;;1999.90;999.90;;;;;;;15.67;44.45;101667.47;4829799;29;96982;-71
2021/07/21 03:45:12;;;;;;;1999.90;999.90;;;;;;;15.69;44.41;101673.75;4841032;29;100539;-73
2021/07/21 03:47:44;;;;;;;1999.90;999.90;;;;;;;15.61;44.55;101678.09;4817614;29;97262;-72
2021/07/21 03:50:13;;;;;;;1999.90;999.90;;;;;;;15.59;44.68;101679.91;4839388;29;98656;-72
2021/07/21 03:52:45;;;;;;;1999.90;999.90;;;;;;;15.62;44.72;101681.69;4851586;28;97093;-71
2021/07/21 03:55:16;;;;;;;1999.90;999.90;;;;;;;15.63;44.47;101680.84;4839527;29;97811;-72
2021/07/21 03:57:50;;;;;;;1999.90;999.90;;;;;;;15.59;44.84;101682.56;4852511;28;98017;-73
2021/07/21 04:00:21;;;;;;;1999.90;999.90;;;;;;;15.59;44.65;101689.72;4821128;29;98838;-71
2021/07/21 04:03:03;;;;;;;1999.90;999.90;;;;;;;15.59;44.62;101687.94;4858135;28;96929;-72
2021/07/21 04:05:50;;;;;;;1999.90;999.90;;;;;;;15.58;45.05;101688.81;4826503;29;99441;-71
2021/07/21 04:08:19;;;;;;;1999.90;999.90;;;;;;;15.49;44.71;101685.97;4811070;29;99848;-71
2021/07/21 04:10:49;;;;;;;1999.90;999.90;;;;;;;15.45;45.02;101692.16;4840016;29;97786;-71
2021/07/21 04:13:17;;;;;;;1999.90;999.90;;;;;;;15.39;45.03;101691.19;4810002;29;99746;-71
2021/07/21 04:16:15;;;;;;;1999.90;999.90;;;;;;;15.35;45.58;101703.66;4823435;29;97859;-72
2021/07/21 04:18:46;;;;;;;1999.90;999.90;;;;;;;15.34;45.34;101701.81;4826094;29;97622;-72
2021/07/21 04:21:15;;;;;;;1999.90;999.90;;;;;;;15.31;45.36;101706.25;4839506;29;98025;-71
2021/07/21 04:23:46;;;;;;;1999.90;999.90;;;;;;;15.31;45.58;101703.56;4839421;29;98206;-71
2021/07/21 04:26:16;;;;;;;1999.90;999.90;;;;;;;15.28;45.80;101704.41;4840292;29;97212;-71
2021/07/21 04:28:45;;;;;;;1999.90;999.90;;;;;;;15.29;45.65;101700.84;4857832;28;98970;-71
2021/07/21 04:31:15;;;;;;;1999.90;999.90;;;;;;;15.30;46.15;101710.72;4811320;29;96812;-71
2021/07/21 04:33:46;;;;;;;1999.90;999.90;;;;;;;15.27;45.98;101710.63;4809307;29;97102;-71
2021/07/21 04:36:15;;;;;;;1999.90;999.90;;;;;;;15.29;45.79;101716.00;4825038;29;97925;-71
2021/07/21 04:38:51;;;;;;;1999.90;999.90;;;;;;;15.30;45.92;101721.44;4826398;29;97718;-71
2021/07/21 04:41:32;;;;;;;1999.90;999.90;;;;;;;15.33;46.00;101724.19;4825965;29;97889;-71
2021/07/21 04:44:18;;;;;;;1999.90;999.90;;;;;;;15.30;46.17;101729.50;4838888;29;98648;-71
2021/07/21 04:46:55;;;;;;;1999.90;999.90;;;;;;;15.30;46.06;101728.59;4817342;29;97192;-71
2021/07/21 04:49:27;;;;;;;1999.90;999.90;;;;;;;15.27;46.57;101726.72;4825741;29;99281;-71
2021/07/21 04:52:00;;;;;;;1999.90;999.90;;;;;;;15.33;46.50;101728.63;4813767;29;96936;-70
2021/07/21 04:54:29;;;;;;;1999.90;999.90;;;;;;;15.29;46.21;101726.72;4839021;29;97310;-71
2021/07/21 04:56:58;;;;;;;1999.90;999.90;;;;;;;15.28;46.33;101730.31;4825388;29;98808;-70
2021/07/21 04:59:34;;;;;;;1999.90;999.90;;;;;;;15.32;46.32;101740.25;4842034;29;100582;-73
2021/07/21 05:02:03;;;;;;;1999.90;999.90;;;;;;;15.35;46.12;101735.84;4825196;29;96842;-71
2021/07/21 05:04:34;;;;;;;1999.90;999.90;;;;;;;15.36;46.25;101737.63;4854992;28;96979;-70
2021/07/21 05:07:16;;;;;;;1999.90;999.90;;;;;;;15.39;46.69;101743.06;4856209;28;98835;-72
2021/07/21 05:09:57;;;;;;;1999.90;999.90;;;;;;;15.39;46.24;101748.44;4829970;29;99648;-71
2021/07/21 05:12:25;;;;;;;1999.90;999.90;;;;;;;15.37;46.87;101751.94;4823862;29;97179;-72
2021/07/21 05:14:55;;;;;;;1999.90;999.90;;;;;;;15.37;46.42;101747.50;4823280;29;97398;-71
2021/07/21 05:17:43;;;;;;;1999.90;999.90;;;;;;;15.42;46.40;101744.88;4825150;29;98505;-72
2021/07/21 05:20:19;;;;;;;1999.90;999.90;;;;;;;15.42;46.32;101745.78;4824218;29;97650;-71
2021/07/21 05:23:09;;;;;;;1999.90;999.90;;;;;;;15.44;46.81;101749.41;4839614;29;97749;-71
2021/07/21 05:25:47;;;;;;;1999.90;999.90;;;;;;;15.42;46.69;101745.78;4855636;28;97273;-71
2021/07/21 05:28:41;;;;;;;1999.90;999.90;;;;;;;15.45;46.70;101751.19;4822856;29;97769;-72
2021/07/21 05:31:41;;;;;;;1999.90;999.90;;;;;;;15.46;46.96;101753.00;4823923;29;98030;-72
2021/07/21 05:34:44;;;;;;;1999.90;999.90;;;;;;;15.52;46.91;101758.44;4824482;29;97049;-72
2021/07/21 05:37:29;;;;;;;1999.90;999.90;;;;;;;15.55;46.74;101758.53;4839039;29;97475;-71
2021/07/21 05:40:00;;;;;;;1999.90;999.90;;;;;;;15.56;46.53;101765.69;4825813;29;99957;-72
2021/07/21 05:42:47;;;;;;;1999.90;999.90;;;;;;;15.57;46.55;101761.22;4825835;29;99253;-72
2021/07/21 05:45:16;;;;;;;1999.90;999.90;;;;;;;15.59;46.58;101759.47;4826590;29;97969;-72
2021/07/21 05:47:43;;;;;;;1999.90;999.90;;;;;;;15.55;46.81;101762.97;4826562;29;97455;-72
2021/07/21 05:50:13;;;;;;;1999.90;999.90;;;;;;;15.56;46.79;101764.78;4824579;29;98007;-72
2021/07/21 05:53:00;;;;;;;1999.90;999.90;;;;;;;15.53;46.80;101771.00;4855715;28;97374;-72
2021/07/21 05:55:47;;;;;;;1999.90;999.90;;;;;;;15.54;47.28;101772.78;4822900;29;98873;-72
2021/07/21 05:58:19;;;;;;;1999.90;999.90;;;;;;;15.56;47.37;101771.03;4841445;29;97988;-71
2021/07/21 06:00:49;;;;;;;1999.90;999.90;;;;;;;15.57;46.99;101775.56;4839696;29;99382;-71
2021/07/21 06:03:24;;;;;;;1999.90;999.90;;;;;;;15.62;47.24;101780.97;4825320;29;98175;-72
2021/07/21 06:06:12;;;;;;;1999.90;999.90;;;;;;;15.66;47.03;101783.75;4826723;29;97275;-71
2021/07/21 06:09:00;;;;;;;1999.90;999.90;;;;;;;15.71;47.03;101778.44;4833852;28;97441;-71
2021/07/21 06:11:36;;;;;;;1999.90;999.90;;;;;;;15.74;46.71;101787.44;4854811;28;97477;-73
2021/07/21 06:14:04;;;;;;;1999.90;999.90;;;;;;;15.74;47.05;101784.75;4855319;28;97627;-73
2021/07/21 06:16:36;;;;;;;1999.90;999.90;;;;;;;15.75;46.74;101793.72;4824199;29;97247;-72
2021/07/21 06:19:06;;;;;;;1999.90;999.90;;;;;;;15.73;47.15;101799.06;4825966;29;97637;-72
2021/07/21 06:21:33;;;;;;;1999.90;999.90;;;;;;;15.70;46.87;101796.31;4818460;29;99815;-72
2021/07/21 06:24:21;;;;;;;1999.90;999.90;;;;;;;15.69;47.26;101794.53;4850273;28;100011;-72
2021/07/21 06:26:52;;;;;;;1999.90;999.90;;;;;;;15.72;47.17;101801.72;4823521;29;97474;-73
2021/07/21 06:29:33;;;;;;;1999.90;999.90;;;;;;;15.73;47.09;101800.84;4847486;28;98197;-72
2021/07/21 06:32:01;;;;;;;1999.90;999.90;;;;;;;15.75;47.06;101800.00;4824753;29;97301;-73
2021/07/21 06:34:30;;;;;;;1999.90;999.90;;;;;;;15.75;46.91;101804.47;4854274;28;97514;-72
2021/07/21 06:37:08;;;;;;;1999.90;999.90;;;;;;;15.75;46.91;101804.47;4826917;29;97453;-72
2021/07/21 06:39:38;;;;;;;1999.90;999.90;;;;;;;15.78;46.76;101813.47;4827568;29;97230;-72
2021/07/21 06:42:08;;;;;;;1999.90;999.90;;;;;;;15.81;47.00;101813.50;4809380;29;99231;-73
2021/07/21 06:44:41;;;;;;;1999.90;999.90;;;;;;;15.87;46.86;101815.38;4805965;29;97942;-72
2021/07/21 06:47:20;;;;;;;1999.90;999.90;;;;;;;15.93;46.73;101827.13;4846876;28;98283;-73
2021/07/21 06:49:52;;;;;;;1999.90;999.90;;;;;;;15.97;46.84;101822.72;4826143;29;97222;-72
2021/07/21 06:52:23;;;;;;;1999.90;999.90;;;;;;;16.00;46.63;101823.69;4831342;29;97080;-72
2021/07/21 06:54:54;;;;;;;1999.90;999.90;;;;;;;16.03;46.15;101826.41;4844541;28;97804;-73
2021/07/21 06:57:27;;;;;;;1999.90;999.90;;;;;;;16.03;46.24;101831.78;4827777;29;98092;-72
2021/07/21 07:00:14;;;;;;;1999.90;999.90;;;;;;;16.01;46.50;101830.84;4856998;28;98643;-72
2021/07/21 07:03:11;;;;;;;1999.90;999.90;;;;;;;15.98;46.38;101829.88;4817981;29;98486;-72
2021/07/21 07:05:42;;;;;;;1999.90;999.90;;;;;;;15.90;46.40;101831.56;4833138;28;99646;-72
2021/07/21 07:08:35;;;;;;;1999.90;999.90;;;;;;;15.84;46.81;101832.34;4812844;29;97715;-72
2021/07/21 07:11:23;;;;;;;1999.90;999.90;;;;;;;15.82;46.75;101836.78;4827227;29;98404;-72
2021/07/21 07:13:51;;;;;;;1999.90;999.90;;;;;;;15.76;46.72;101843.81;4825819;29;98938;-72
2021/07/21 07:16:19;;;;;;;1999.90;999.90;;;;;;;15.72;46.81;101845.56;4835991;29;98650;-72
2021/07/21 07:18:47;;;;;;;1999.90;999.90;;;;;;;15.78;46.50;101842.97;4829306;29;97208;-72
2021/07/21 07:21:15;;;;;;;1999.90;999.90;;;;;;;15.85;46.54;101844.88;4827816;29;98260;-73
2021/07/21 07:23:42;;;;;;;1999.90;999.90;;;;;;;15.91;46.40;101850.38;4826740;29;97809;-73
2021/07/21 07:26:10;;;;;;;1999.90;999.90;;;;;;;15.95;46.89;101859.38;4827222;29;98728;-73
2021/07/21 07:28:39;;;;;;;1999.90;999.90;;;;;;;16.00;46.60;101854.97;4827022;29;97214;-72
2021/07/21 07:31:07;;;;;;;1999.90;999.90;;;;;;;15.98;46.33;101857.63;4828350;29;96977;-73
2021/07/21 07:33:35;;;;;;;1999.90;999.90;;;;;;;16.01;45.91;101849.66;4857104;28;98424;-73
2021/07/21 07:36:03;;;;;;;1999.90;999.90;;;;;;;16.03;46.24;101853.25;4826105;29;98144;-72
2021/07/21 07:38:32;;;;;;;1999.90;999.90;;;;;;;16.07;46.21;101855.13;4826964;29;97119;-73
2021/07/21 07:41:00;;;;;;;1999.90;999.90;;;;;;;16.08;46.04;101854.28;4827370;29;97392;-72
2021/07/21 07:43:28;;;;;;;1999.90;999.90;;;;;;;16.08;46.39;101853.34;4825648;29;99366;-73
2021/07/21 07:45:58;;;;;;;1999.90;999.90;;;;;;;16.07;46.18;101852.44;4827744;29;99127;-72
2021/07/21 07:48:26;;;;;;;1999.90;999.90;;;;;;;16.12;46.04;101855.22;4829333;29;97320;-72
2021/07/21 07:50:54;;;;;;;1999.90;999.90;;;;;;;16.17;46.18;101852.59;4842641;29;97367;-73
2021/07/21 07:53:22;;;;;;;1999.90;999.90;;;;;;;16.20;45.80;101856.22;4827096;29;97719;-72
2021/07/21 07:55:50;;;;;;;1999.90;999.90;;;;;;;16.22;45.42;101845.50;4828188;29;97861;-73
2021/07/21 07:58:18;;;;;;;1999.90;999.90;;;;;;;16.25;45.32;101843.75;4829012;29;97063;-72
2021/07/21 08:00:46;;;;;;;1999.90;999.90;;;;;;;16.26;45.38;101839.28;4826220;29;97393;-72
2021/07/21 08:03:15;;;;;;;1999.90;999.90;;;;;;;16.27;45.27;101843.81;4829796;29;99452;-72
2021/07/21 08:05:43;;;;;;;1999.90;999.90;;;;;;;16.26;44.61;101848.25;4827229;29;98208;-72
2021/07/21 08:08:11;;;;;;;1999.90;999.90;;;;;;;16.24;44.59;101836.59;4828286;29;97724;-72
2021/07/21 08:10:39;;;;;;;1999.90;999.90;;;;;;;16.27;44.69;101843.81;4857939;28;97929;-72
2021/07/21 08:13:06;;;;;;;1999.90;999.90;;;;;;;16.30;44.68;101831.31;4827313;29;97628;-72
2021/07/21 08:15:34;;;;;;;1999.90;999.90;;;;;;;16.32;44.80;101836.69;4827282;29;99712;-72
2021/07/21 08:18:03;;;;;;;1999.90;999.90;;;;;;;16.33;44.62;101838.50;4829932;29;97128;-72
2021/07/21 08:20:32;;;;;;;1999.90;999.90;;;;;;;16.38;44.28;101831.41;4827286;29;97511;-72
2021/07/21 08:23:00;;;;;;;1999.90;999.90;;;;;;;16.42;44.38;101838.63;4828962;29;97079;-73
2021/07/21 08:25:28;;;;;;;1999.90;999.90;;;;;;;16.46;44.19;101838.69;4826559;29;97522;-72
2021/07/21 08:27:58;;;;;;;1999.90;999.90;;;;;;;16.47;43.69;101835.13;4811662;29;96943;-72
2021/07/21 08:30:26;;;;;;;1999.90;999.90;;;;;;;16.49;43.48;101830.66;4824948;29;97467;-72
2021/07/21 08:32:56;;;;;;;1999.90;999.90;;;;;;;16.51;43.90;101828.00;4829213;29;98985;-72
2021/07/21 08:35:28;;;;;;;1999.90;999.90;;;;;;;16.54;43.61;101842.38;4808007;29;98974;-73
2021/07/21 08:37:57;;;;;;;1999.90;999.90;;;;;;;16.58;43.59;101829.91;4826527;29;96926;-72
2021/07/21 08:40:26;;;;;;;1999.90;999.90;;;;;;;16.60;43.08;101830.81;4826347;29;96966;-72
2021/07/21 08:42:55;;;;;;;1999.90;999.90;;;;;;;16.61;42.93;101824.56;4826306;29;98688;-72
2021/07/21 08:45:23;;;;;;;1999.90;999.90;;;;;;;16.62;42.81;101821.88;4838147;28;99476;-73
2021/07/21 08:47:55;;;;;;;1999.90;999.90;;;;;;;16.66;42.75;101828.19;4819234;29;98101;-73
2021/07/21 08:50:23;;;;;;;1999.90;999.90;;;;;;;16.71;42.57;101826.50;4821710;29;97989;-73
2021/07/21 08:52:53;;;;;;;1999.90;999.90;;;;;;;16.77;42.41;101826.59;4821148;29;97826;-72
2021/07/21 08:55:25;;;;;;;1999.90;999.90;;;;;;;16.82;42.42;101835.59;4824324;29;97401;-72
2021/07/21 08:57:53;;;;;;;1999.90;999.90;;;;;;;16.84;42.25;101844.59;4825773;29;98118;-72
2021/07/21 09:00:21;;;;;;;1999.90;999.90;;;;;;;16.88;42.18;101836.59;4825004;29;99158;-72
2021/07/21 09:02:48;;;;;;;1999.90;999.90;;;;;;;16.91;42.02;101842.00;4824652;29;97973;-72
2021/07/21 09:05:17;;;;;;;1999.90;999.90;;;;;;;16.95;41.79;101835.78;4823031;29;98112;-72
2021/07/21 09:07:48;;;;;;;1999.90;999.90;;;;;;;16.97;41.92;101839.41;4825091;29;96953;-73
2021/07/21 09:10:17;;;;;;;1999.90;999.90;;;;;;;17.01;41.74;101838.56;4827298;29;97971;-73
2021/07/21 09:12:49;;;;;;;1999.90;999.90;;;;;;;17.06;41.87;101847.56;4826758;29;97695;-73
2021/07/21 09:15:18;;;;;;;1999.90;999.90;;;;;;;17.09;41.80;101846.69;4822751;29;98772;-72
2021/07/21 09:18:04;;;;;;;1999.90;999.90;;;;;;;17.13;41.60;101840.44;4823571;29;98318;-73
2021/07/21 09:20:33;;;;;;;1999.90;999.90;;;;;;;17.16;41.56;101840.50;4827219;29;97184;-73
2021/07/21 09:23:01;;;;;;;1999.90;999.90;;;;;;;17.18;41.63;101841.44;4823213;29;98860;-73
2021/07/21 09:25:30;;;;;;;1999.90;999.90;;;;;;;17.19;41.26;101842.31;4809162;29;96976;-73
2021/07/21 09:28:01;;;;;;;1999.90;999.90;;;;;;;17.16;40.92;101842.28;4826338;29;97060;-73
2021/07/21 09:30:30;;;;;;;1999.90;999.90;;;;;;;17.14;40.59;101839.59;4824605;29;97398;-73
2021/07/21 09:33:01;;;;;;;1999.90;999.90;;;;;;;17.17;40.74;101845.00;4838041;28;97509;-73
2021/07/21 09:35:31;;;;;;;1999.90;999.90;;;;;;;17.19;40.73;101832.47;4854280;28;98980;-73
2021/07/21 09:38:01;;;;;;;1999.90;999.90;;;;;;;17.25;41.04;101837.91;4825256;29;98034;-73
2021/07/21 09:40:29;;;;;;;1999.90;999.90;;;;;;;17.29;40.97;101839.72;4823740;29;96926;-73
2021/07/21 09:42:57;;;;;;;1999.90;999.90;;;;;;;17.28;40.67;101837.03;4825719;29;98308;-73
2021/07/21 09:45:26;;;;;;;1999.90;999.90;;;;;;;17.28;40.43;101837.94;4824701;29;98897;-73
2021/07/21 09:47:58;;;;;;;1999.90;999.90;;;;;;;17.28;40.19;101834.34;4840517;28;97657;-72
2021/07/21 09:50:28;;;;;;;1999.90;999.90;;;;;;;17.32;39.95;101831.69;4823065;29;98309;-73
2021/07/21 09:53:01;;;;;;;1999.90;999.90;;;;;;;17.37;39.61;101835.34;4821707;29;99902;-73
2021/07/21 09:55:29;;;;;;;1999.90;999.90;;;;;;;17.39;39.67;101833.59;4819472;29;99155;-72
2021/07/21 09:57:59;;;;;;;1999.90;999.90;;;;;;;17.42;39.60;101836.31;4827266;29;97771;-73
2021/07/21 10:00:31;;;;;;;1999.90;999.90;;;;;;;17.45;39.38;101830.97;4841508;29;97252;-73
2021/07/21 10:03:12;;;;;;;1999.90;999.90;;;;;;;17.45;39.43;101836.34;4827983;29;97753;-72
2021/07/21 10:05:57;;;;;;;1999.90;999.90;;;;;;;17.48;39.31;101835.47;4823752;29;97824;-73
2021/07/21 10:08:41;;;;;;;1999.90;999.90;;;;;;;17.50;39.15;101829.22;4824996;29;96856;-73
2021/07/21 10:11:21;;;;;;;1999.90;999.90;;;;;;;17.55;38.94;101835.53;4820463;29;96856;-73
2021/07/21 10:13:49;;;;;;;1999.90;999.90;;;;;;;17.57;38.77;101828.38;4825846;29;97743;-73
2021/07/21 10:16:41;;;;;;;1999.90;999.90;;;;;;;17.57;38.92;101823.00;4823870;29;97773;-73
2021/07/21 10:19:11;;;;;;;1999.90;999.90;;;;;;;17.60;39.05;101814.94;4824178;29;98024;-75
2021/07/21 10:21:40;;;;;;;1999.90;999.90;;;;;;;17.63;38.96;101820.38;4828192;28;97625;-75
2021/07/21 10:24:09;;;;;;;1999.90;999.90;;;;;;;17.62;38.71;101820.38;4824609;29;99249;-75
2021/07/21 10:26:38;;;;;;;1999.90;999.90;;;;;;;17.66;38.93;101820.38;4823866;29;97590;-75
2021/07/21 10:29:07;;;;;;;1999.90;999.90;;;;;;;17.70;38.82;101814.16;4839042;29;97106;-75
2021/07/21 10:31:37;;;;;;;1999.90;999.90;;;;;;;17.72;38.69;101814.16;4821701;29;97970;-75
2021/07/21 10:34:06;;;;;;;1999.90;999.90;;;;;;;17.69;38.43;101812.31;4823987;29;98087;-75
2021/07/21 10:36:38;;;;;;;1999.90;999.90;;;;;;;17.72;38.43;101814.16;4834141;28;98688;-74
2021/07/21 10:39:10;;;;;;;1999.90;999.90;;;;;;;17.75;38.64;101819.56;4826704;29;97752;-74
2021/07/21 10:41:38;;;;;;;1999.90;999.90;;;;;;;17.76;38.34;101822.28;4855462;28;96984;-75
2021/07/21 10:44:09;;;;;;;1999.90;999.90;;;;;;;17.76;38.01;101819.59;4823968;29;99479;-74
2021/07/21 10:46:41;;;;;;;1999.90;999.90;;;;;;;17.75;38.11;101815.06;4831918;28;97579;-75
2021/07/21 10:49:31;;;;;;;1999.90;999.90;;;;;;;17.77;38.41;101817.78;4826738;29;97848;-74
2021/07/21 10:55:23;;;;;;;1999.90;999.90;;;;;;;17.76;37.77;101819.59;4856221;28;97972;-74
2021/07/21 11:00:42;;;;;;;1999.90;999.90;;;;;;;17.77;37.59;101821.38;4826777;29;96862;-74
2021/07/21 11:03:20;;;;;;;1999.90;999.90;;;;;;;17.77;37.59;101824.06;4855885;28;97291;-75
2021/07/21 11:05:57;;;;;;;1999.90;999.90;;;;;;;17.73;37.87;101816.84;4838353;29;97239;-74
2021/07/21 11:08:26;;;;;;;1999.90;999.90;;;;;;;17.76;37.45;101814.22;4856600;28;98909;-74
2021/07/21 11:10:55;;;;;;;1999.90;999.90;;;;;;;17.80;37.59;101825.91;4825308;29;97352;-74
2021/07/21 11:13:38;;;;;;;1999.90;999.90;;;;;;;17.78;37.23;101824.97;4824962;29;97386;-74
2021/07/21 11:16:07;;;;;;;1999.90;999.90;;;;;;;17.76;37.34;101816.00;4854785;28;99846;-74
2021/07/21 11:18:44;;;;;;;1999.90;999.90;;;;;;;17.77;37.46;101813.31;4824928;29;96760;-74
2021/07/21 11:21:14;;;;;;;1999.90;999.90;;;;;;;17.79;37.37;101816.91;4825825;29;97337;-74